Time;durP1;ratioP1;P1;durP2;ratioP2;P2;SDS_P1;SDS_P2;PMS_P1;PMS_P2;Temp;Humidity;BMP_temperature;BMP_pressure;BME280_temperature;BME280_humidity;BME280_pressure;Samples;Min_cycle;Max_cycle;Signal;HPM_P1;HPM_P2
2022/07/15 00:00:59;;;;;;;3.13;2.10;;;20.70;64.80;;;;;;6058929;23;20972;-83
2022/07/15 00:03:26;;;;;;;3.13;2.40;;;20.70;65.10;;;;;;6057814;23;20810;-84
2022/07/15 00:05:54;;;;;;;2.73;2.50;;;20.70;66.20;;;;;;6057675;23;20447;-84
2022/07/15 00:08:20;;;;;;;4.73;2.50;;;20.60;65.70;;;;;;6056110;23;20661;-84
2022/07/15 00:10:47;;;;;;;3.17;2.40;;;20.60;66.00;;;;;;6059643;23;20801;-84
2022/07/15 00:13:16;;;;;;;4.10;2.33;;;20.70;66.30;;;;;;6051824;23;20454;-84
2022/07/15 00:15:43;;;;;;;3.73;2.73;;;20.50;66.80;;;;;;6059880;23;20510;-84
2022/07/15 00:18:11;;;;;;;3.37;2.47;;;20.50;67.20;;;;;;6057110;23;20470;-84
2022/07/15 00:20:39;;;;;;;3.43;2.80;;;20.40;67.30;;;;;;6058747;23;20432;-84
2022/07/15 00:23:08;;;;;;;2.97;2.67;;;20.40;67.60;;;;;;6057967;23;20470;-84
2022/07/15 00:25:35;;;;;;;4.60;3.13;;;20.30;68.00;;;;;;6059313;23;20441;-84
2022/07/15 00:28:05;;;;;;;2.87;2.63;;;20.30;68.10;;;;;;6055817;23;20518;-84
2022/07/15 00:30:35;;;;;;;3.43;2.60;;;20.30;68.50;;;;;;6060036;23;20968;-84
2022/07/15 00:33:03;;;;;;;4.60;2.70;;;20.20;68.70;;;;;;6057379;23;20430;-84
2022/07/15 00:35:32;;;;;;;3.20;2.30;;;20.20;68.70;;;;;;6059219;23;20521;-84
2022/07/15 00:37:59;;;;;;;4.23;3.00;;;20.10;68.80;;;;;;6057122;23;20489;-84
2022/07/15 00:40:27;;;;;;;3.57;2.70;;;20.10;69.10;;;;;;6059512;23;20503;-84
2022/07/15 00:42:55;;;;;;;3.03;2.70;;;20.10;69.20;;;;;;6055793;23;20514;-85
2022/07/15 00:45:24;;;;;;;3.90;2.70;;;20.10;69.30;;;;;;6060747;23;20451;-85
2022/07/15 00:47:55;;;;;;;2.90;2.70;;;20.10;69.30;;;;;;6058241;23;20461;-84
2022/07/15 00:50:27;;;;;;;5.10;2.70;;;20.10;69.30;;;;;;6057900;23;20477;-84
2022/07/15 00:52:56;;;;;;;3.03;2.50;;;20.00;69.20;;;;;;6052765;23;20439;-84
2022/07/15 00:55:24;;;;;;;3.80;2.30;;;20.00;69.50;;;;;;6059050;23;21020;-85
2022/07/15 00:57:56;;;;;;;2.90;2.63;;;19.90;69.70;;;;;;6049369;23;20846;-84
2022/07/15 01:00:24;;;;;;;3.30;2.77;;;19.90;69.80;;;;;;6058289;23;20438;-84
2022/07/15 01:02:55;;;;;;;3.03;2.73;;;19.80;70.20;;;;;;6057055;23;20449;-84
2022/07/15 01:05:22;;;;;;;3.30;2.27;;;19.80;70.30;;;;;;6060616;23;20460;-84
2022/07/15 01:07:50;;;;;;;4.10;2.50;;;19.80;70.50;;;;;;6057450;23;21121;-84
2022/07/15 01:10:18;;;;;;;6.17;2.90;;;19.80;70.30;;;;;;6061469;23;20455;-84
2022/07/15 01:12:47;;;;;;;4.37;2.77;;;19.70;70.20;;;;;;6060089;23;20770;-84
2022/07/15 01:15:15;;;;;;;4.13;2.40;;;19.70;70.40;;;;;;6057462;23;20489;-85
2022/07/15 01:17:42;;;;;;;2.83;2.63;;;19.60;70.50;;;;;;6060028;23;20498;-85
2022/07/15 01:20:13;;;;;;;3.90;2.60;;;19.70;71.00;;;;;;6061381;23;20447;-85
2022/07/15 01:22:42;;;;;;;3.00;2.67;;;19.50;71.10;;;;;;6056877;23;20977;-85
2022/07/15 01:25:09;;;;;;;3.57;2.60;;;19.50;71.00;;;;;;6060178;23;20477;-85
2022/07/15 01:27:37;;;;;;;3.43;2.30;;;19.40;71.70;;;;;;6059662;23;20458;-84
2022/07/15 01:30:05;;;;;;;2.50;2.30;;;19.40;72.00;;;;;;6061085;23;20477;-84
2022/07/15 01:32:32;;;;;;;4.33;2.50;;;19.40;72.30;;;;;;6055741;23;20548;-84
2022/07/15 01:34:59;;;;;;;2.40;2.20;;;19.30;72.30;;;;;;6061068;23;20448;-84
2022/07/15 01:37:27;;;;;;;2.90;2.30;;;19.30;72.50;;;;;;6053782;23;20466;-84
2022/07/15 01:39:55;;;;;;;4.07;2.70;;;19.20;72.70;;;;;;6060145;23;20449;-84
2022/07/15 01:42:23;;;;;;;3.17;2.37;;;19.20;72.70;;;;;;6059358;23;20979;-84
2022/07/15 01:44:50;;;;;;;3.20;2.47;;;19.20;72.80;;;;;;6060789;23;20465;-84
2022/07/15 01:47:17;;;;;;;2.60;2.40;;;19.10;73.00;;;;;;6058848;23;20829;-84
2022/07/15 01:49:44;;;;;;;2.60;2.37;;;19.10;73.70;;;;;;6058897;23;21024;-85
2022/07/15 01:52:12;;;;;;;2.97;2.50;;;19.00;73.40;;;;;;6058375;23;20438;-85
2022/07/15 01:54:39;;;;;;;4.87;2.77;;;19.00;73.60;;;;;;6058189;23;20437;-84
2022/07/15 01:57:08;;;;;;;3.90;2.50;;;19.00;73.70;;;;;;6058739;23;20465;-85
2022/07/15 01:59:35;;;;;;;2.57;2.37;;;18.90;74.00;;;;;;6061390;23;20457;-85
2022/07/15 02:02:02;;;;;;;3.20;2.57;;;18.90;73.30;;;;;;6059436;23;20452;-85
2022/07/15 02:04:29;;;;;;;3.80;2.10;;;18.90;73.90;;;;;;6057290;23;20473;-85
2022/07/15 02:06:56;;;;;;;2.63;2.43;;;18.90;74.80;;;;;;6061190;23;20502;-85
2022/07/15 02:09:23;;;;;;;2.60;2.10;;;18.80;74.80;;;;;;6058510;23;20441;-84
2022/07/15 02:11:50;;;;;;;3.23;2.50;;;18.80;75.20;;;;;;6058666;23;20788;-84
2022/07/15 02:14:19;;;;;;;3.53;2.30;;;18.70;75.70;;;;;;6057716;23;20442;-84
2022/07/15 02:16:46;;;;;;;2.30;2.17;;;18.70;76.20;;;;;;6059018;23;20504;-84
2022/07/15 02:19:13;;;;;;;3.10;2.13;;;18.60;75.60;;;;;;6057020;23;20959;-85
2022/07/15 02:21:40;;;;;;;2.90;2.33;;;18.60;76.70;;;;;;6060446;23;20516;-84
2022/07/15 02:24:07;;;;;;;2.70;2.33;;;18.70;77.20;;;;;;6060812;23;20475;-86
2022/07/15 02:26:34;;;;;;;2.90;2.70;;;18.50;76.70;;;;;;6056720;23;20541;-85
2022/07/15 02:29:01;;;;;;;2.90;2.60;;;18.40;76.50;;;;;;6059506;23;20457;-85
2022/07/15 02:31:30;;;;;;;3.10;2.23;;;18.40;76.40;;;;;;6056822;23;20445;-85
2022/07/15 02:33:57;;;;;;;3.27;2.30;;;18.40;76.90;;;;;;6055825;23;20450;-84
2022/07/15 02:36:24;;;;;;;2.60;2.40;;;18.30;77.60;;;;;;6060815;23;20500;-84
2022/07/15 02:38:51;;;;;;;2.30;2.10;;;18.30;77.80;;;;;;6056899;23;20452;-85
2022/07/15 02:41:18;;;;;;;5.77;2.53;;;18.30;78.60;;;;;;6058362;23;20921;-84
2022/07/15 02:43:45;;;;;;;3.83;2.17;;;18.30;79.00;;;;;;6061110;23;20433;-84
2022/07/15 02:46:13;;;;;;;2.30;2.10;;;18.20;77.40;;;;;;6054403;23;20470;-85
2022/07/15 02:48:41;;;;;;;2.90;2.13;;;18.20;77.80;;;;;;6058146;23;20485;-85
2022/07/15 02:51:09;;;;;;;2.77;2.17;;;18.20;76.60;;;;;;6057247;23;20452;-85
2022/07/15 02:53:37;;;;;;;3.30;2.17;;;18.10;75.90;;;;;;6060787;23;20441;-85
2022/07/15 02:56:04;;;;;;;2.47;2.00;;;18.10;75.40;;;;;;6056674;23;20561;-85
2022/07/15 02:58:32;;;;;;;3.97;2.43;;;18.10;75.50;;;;;;6059943;23;20449;-85
2022/07/15 03:01:00;;;;;;;2.10;1.90;;;18.10;77.20;;;;;;6060229;23;20454;-85
2022/07/15 03:03:28;;;;;;;2.37;2.10;;;18.10;77.50;;;;;;6057513;23;20454;-85
2022/07/15 03:05:59;;;;;;;2.60;2.40;;;18.10;77.40;;;;;;6058362;23;20465;-85
2022/07/15 03:08:26;;;;;;;3.07;1.97;;;18.10;78.20;;;;;;6058591;23;20540;-85
2022/07/15 03:10:53;;;;;;;2.27;2.07;;;18.10;78.50;;;;;;6056140;23;21326;-85
2022/07/15 03:13:20;;;;;;;3.77;2.50;;;18.10;78.60;;;;;;6058894;23;20454;-85
2022/07/15 03:15:47;;;;;;;2.30;2.03;;;18.00;78.50;;;;;;6061382;23;20451;-85
2022/07/15 03:18:14;;;;;;;2.40;2.20;;;18.00;78.80;;;;;;6055969;23;20528;-85
2022/07/15 03:20:42;;;;;;;3.00;2.43;;;18.00;79.10;;;;;;6056857;23;20513;-85
2022/07/15 03:23:11;;;;;;;1.93;1.80;;;18.00;79.60;;;;;;6056028;23;20452;-85
2022/07/15 03:25:38;;;;;;;4.97;2.27;;;17.90;79.70;;;;;;6055404;23;20810;-85
2022/07/15 03:28:05;;;;;;;3.90;2.20;;;18.00;79.80;;;;;;6057314;23;20855;-85
2022/07/15 03:30:32;;;;;;;2.77;2.37;;;17.90;79.80;;;;;;6061187;23;21163;-85
2022/07/15 03:32:59;;;;;;;3.20;2.83;;;17.90;80.60;;;;;;6052689;23;20441;-85
2022/07/15 03:35:26;;;;;;;2.90;2.43;;;17.90;81.20;;;;;;6059763;23;20443;-85
2022/07/15 03:37:53;;;;;;;2.40;2.20;;;17.90;81.50;;;;;;6057183;23;20462;-85
2022/07/15 03:40:22;;;;;;;6.13;2.90;;;17.90;81.90;;;;;;6059938;23;20461;-85
2022/07/15 03:42:49;;;;;;;2.50;2.30;;;17.90;82.00;;;;;;6056560;23;20442;-85
2022/07/15 03:45:16;;;;;;;3.63;2.23;;;18.00;82.10;;;;;;6061848;23;20483;-85
2022/07/15 03:47:43;;;;;;;4.47;2.70;;;18.00;82.90;;;;;;6058878;23;20473;-85
2022/07/15 03:50:10;;;;;;;4.20;2.60;;;18.00;82.90;;;;;;6058877;23;20444;-85
2022/07/15 03:52:37;;;;;;;4.80;2.60;;;18.00;83.10;;;;;;6060243;23;20774;-85
2022/07/15 03:55:06;;;;;;;2.70;2.47;;;18.10;83.20;;;;;;6059936;23;20437;-85
2022/07/15 03:57:34;;;;;;;3.40;2.70;;;18.10;83.50;;;;;;6054237;23;20481;-86
2022/07/15 04:00:02;;;;;;;3.00;2.70;;;18.10;84.20;;;;;;6060490;23;21258;-85
2022/07/15 04:02:29;;;;;;;3.20;2.30;;;18.10;84.90;;;;;;6055883;23;20464;-85
2022/07/15 04:04:56;;;;;;;3.70;2.40;;;18.10;84.80;;;;;;6058452;23;21023;-85
2022/07/15 04:07:23;;;;;;;2.77;2.33;;;18.20;84.90;;;;;;6058366;23;20488;-85
2022/07/15 04:09:50;;;;;;;2.83;2.63;;;18.20;85.00;;;;;;6058475;23;20533;-85
2022/07/15 04:12:17;;;;;;;3.47;3.00;;;18.20;85.30;;;;;;6058514;23;20517;-85
2022/07/15 04:14:45;;;;;;;2.70;2.50;;;18.30;85.70;;;;;;6055076;23;20433;-86
2022/07/15 04:17:13;;;;;;;3.57;2.90;;;18.30;85.90;;;;;;6056269;23;20469;-86
2022/07/15 04:19:40;;;;;;;4.20;3.07;;;18.30;85.90;;;;;;6057470;23;20925;-86
2022/07/15 04:22:07;;;;;;;3.13;2.70;;;18.40;85.80;;;;;;6057433;23;20488;-86
2022/07/15 04:24:34;;;;;;;4.93;2.73;;;18.40;85.50;;;;;;6053665;23;20474;-87
2022/07/15 04:27:01;;;;;;;3.70;2.77;;;18.50;85.60;;;;;;6041297;23;20849;-87
2022/07/15 04:29:29;;;;;;;4.03;2.87;;;18.50;85.50;;;;;;6052015;23;20947;-86
2022/07/15 04:31:57;;;;;;;4.60;3.13;;;18.50;85.30;;;;;;6050310;23;20440;-87
2022/07/15 04:34:24;;;;;;;3.43;2.43;;;18.60;85.40;;;;;;6054976;23;20552;-86
2022/07/15 04:36:51;;;;;;;3.10;2.83;;;18.60;85.20;;;;;;6056867;23;20477;-85
2022/07/15 04:39:18;;;;;;;3.63;2.57;;;18.70;85.20;;;;;;6056436;23;20859;-86
2022/07/15 04:41:45;;;;;;;3.00;2.60;;;18.70;85.30;;;;;;6056772;23;20537;-85
2022/07/15 04:44:12;;;;;;;3.73;2.50;;;18.70;85.10;;;;;;6052926;23;20521;-85
2022/07/15 04:46:39;;;;;;;4.07;3.20;;;18.70;85.60;;;;;;6055225;23;20854;-85
2022/07/15 04:51:52;;;;;;;3.90;2.77;;;18.70;86.70;;;;;;6058607;23;20530;-85
2022/07/15 04:54:20;;;;;;;4.87;2.73;;;18.60;87.40;;;;;;6056362;23;20836;-86
2022/07/15 04:56:47;;;;;;;3.30;2.80;;;18.40;88.50;;;;;;6056601;23;20464;-84
2022/07/15 04:59:14;;;;;;;4.60;3.07;;;18.30;89.40;;;;;;6052884;23;20478;-85
2022/07/15 05:01:41;;;;;;;2.90;2.60;;;18.10;89.90;;;;;;6055418;23;20451;-80
2022/07/15 05:04:10;;;;;;;3.00;2.63;;;18.00;90.60;;;;;;6053354;23;20438;-91
2022/07/15 05:06:37;;;;;;;3.30;3.00;;;18.20;91.10;;;;;;6045708;23;20480;-83
2022/07/15 05:09:04;;;;;;;3.03;2.80;;;18.10;91.40;;;;;;6051012;23;20448;-81
2022/07/15 05:11:31;;;;;;;3.30;3.00;;;18.20;91.90;;;;;;6043102;23;20536;-81
2022/07/15 05:13:58;;;;;;;2.67;2.40;;;18.20;91.80;;;;;;6052803;23;20441;-77
2022/07/15 05:16:25;;;;;;;3.10;2.20;;;18.30;90.40;;;;;;6052607;23;20469;-77
2022/07/15 05:18:52;;;;;;;3.53;2.30;;;18.40;90.50;;;;;;6056594;23;20469;-76
2022/07/15 05:21:21;;;;;;;4.50;2.50;;;18.60;90.30;;;;;;6051918;23;20544;-86
2022/07/15 05:23:48;;;;;;;3.33;2.73;;;18.70;89.50;;;;;;6050362;23;20444;-83
2022/07/15 05:26:15;;;;;;;3.80;2.30;;;18.80;89.20;;;;;;6052098;23;20465;-83
2022/07/15 05:28:42;;;;;;;2.60;2.40;;;18.90;88.70;;;;;;6049041;23;20446;-83
2022/07/15 05:31:09;;;;;;;2.70;2.47;;;19.00;89.10;;;;;;6055377;23;20442;-83
2022/07/15 05:33:36;;;;;;;2.87;2.50;;;19.20;88.60;;;;;;6053854;23;20513;-82
2022/07/15 05:36:04;;;;;;;3.10;2.60;;;19.30;88.30;;;;;;6051991;23;20875;-84
2022/07/15 05:38:33;;;;;;;3.00;2.50;;;19.40;88.10;;;;;;6049334;23;20446;-81
2022/07/15 05:40:59;;;;;;;3.43;2.43;;;19.50;88.20;;;;;;6053665;23;20522;-82
2022/07/15 05:43:26;;;;;;;3.20;2.90;;;19.60;87.40;;;;;;6053035;23;20792;-82
2022/07/15 05:45:53;;;;;;;2.73;2.53;;;19.80;86.90;;;;;;6055774;23;20470;-82
2022/07/15 05:48:21;;;;;;;5.10;3.47;;;19.80;87.00;;;;;;6049839;23;20442;-81
2022/07/15 05:50:47;;;;;;;3.77;2.47;;;19.90;86.30;;;;;;6052750;23;20528;-81
2022/07/15 05:53:15;;;;;;;5.00;2.53;;;20.00;85.60;;;;;;6059055;23;20837;-81
2022/07/15 05:55:43;;;;;;;2.53;2.30;;;20.00;84.60;;;;;;6049287;23;20457;-81
2022/07/15 05:58:10;;;;;;;4.10;2.53;;;20.00;84.80;;;;;;6056352;23;20439;-81
2022/07/15 06:00:38;;;;;;;2.90;2.33;;;20.00;85.10;;;;;;6053744;23;20460;-81
2022/07/15 06:03:06;;;;;;;5.37;2.40;;;20.10;85.30;;;;;;6054158;23;20473;-81
2022/07/15 06:05:33;;;;;;;4.80;2.73;;;20.30;84.60;;;;;;6054201;23;20481;-82
2022/07/15 06:08:01;;;;;;;2.80;2.60;;;20.30;84.20;;;;;;6056884;23;20449;-82
2022/07/15 06:10:28;;;;;;;4.30;3.07;;;20.40;83.10;;;;;;6058036;23;20520;-82
2022/07/15 06:12:57;;;;;;;7.87;2.80;;;20.30;83.70;;;;;;6052959;23;20471;-81
2022/07/15 06:15:24;;;;;;;4.10;2.53;;;20.40;84.10;;;;;;6052213;23;20501;-80
2022/07/15 06:17:51;;;;;;;3.50;2.77;;;20.50;83.50;;;;;;6056485;23;20467;-80
2022/07/15 06:20:18;;;;;;;2.60;2.33;;;20.50;83.40;;;;;;6047316;23;20449;-82
2022/07/15 06:22:46;;;;;;;2.90;2.43;;;20.60;81.20;;;;;;6049953;23;20447;-81
2022/07/15 06:25:14;;;;;;;3.63;2.17;;;20.70;80.60;;;;;;6055513;23;20894;-82
2022/07/15 06:27:41;;;;;;;2.90;1.97;;;20.80;79.50;;;;;;6051129;23;20527;-84
2022/07/15 06:30:11;;;;;;;2.53;1.97;;;20.90;78.50;;;;;;6056369;23;20966;-80
2022/07/15 15:05:07;;;;;;;2.07;1.90;;;41.90;31.10;;;;;;6151000;23;20698;-75
2022/07/15 15:07:34;;;;;;;4.07;2.57;;;41.00;32.10;;;;;;6137342;23;20441;-77
2022/07/15 15:10:01;;;;;;;4.23;2.37;;;41.40;32.60;;;;;;6120308;23;20457;-79
2022/07/15 15:12:28;;;;;;;2.87;2.03;;;41.20;32.00;;;;;;6127287;23;20518;-80
2022/07/15 15:14:55;;;;;;;2.83;2.50;;;41.30;31.80;;;;;;6124091;23;20473;-82
2022/07/15 15:17:22;;;;;;;3.20;1.97;;;41.50;31.60;;;;;;6120686;23;20628;-83
2022/07/15 15:19:49;;;;;;;2.37;2.17;;;41.50;32.10;;;;;;6126688;23;20741;-83
2022/07/15 15:22:18;;;;;;;2.53;2.30;;;41.40;32.60;;;;;;6125245;23;20454;-82
2022/07/15 15:24:45;;;;;;;2.43;2.10;;;41.90;31.70;;;;;;6121298;23;20469;-84
2022/07/15 15:27:12;;;;;;;2.50;2.30;;;41.50;31.50;;;;;;6128819;23;20480;-83
2022/07/15 15:29:39;;;;;;;2.60;2.03;;;42.20;31.40;;;;;;6124811;23;20934;-82
2022/07/15 15:32:11;;;;;;;2.07;1.90;;;42.50;30.80;;;;;;6122339;23;20475;-83
2022/07/15 15:34:40;;;;;;;3.30;2.20;;;42.70;31.10;;;;;;6116631;23;20499;-83
2022/07/15 15:37:08;;;;;;;2.30;2.00;;;43.20;30.90;;;;;;6120746;23;20444;-76
2022/07/15 15:39:37;;;;;;;2.90;2.30;;;43.60;31.60;;;;;;6127845;23;20457;-82
2022/07/15 15:42:05;;;;;;;2.43;2.23;;;43.70;30.40;;;;;;6135691;23;20951;-83
2022/07/15 15:44:32;;;;;;;3.90;2.13;;;43.70;30.00;;;;;;6131957;23;20830;-82
2022/07/15 15:46:59;;;;;;;2.53;2.33;;;43.00;30.10;;;;;;6143180;23;20441;-84
2022/07/15 15:49:26;;;;;;;3.47;2.00;;;41.80;30.60;;;;;;6123730;23;20932;-82
2022/07/15 15:51:53;;;;;;;2.23;2.10;;;40.10;31.60;;;;;;6133338;23;20456;-83
2022/07/15 15:54:20;;;;;;;8.30;2.43;;;39.10;32.50;;;;;;6119551;23;20478;-82
2022/07/15 15:56:48;;;;;;;3.33;1.97;;;38.00;33.50;;;;;;6124440;23;20441;-82
2022/07/15 15:59:16;;;;;;;2.27;2.07;;;36.90;33.80;;;;;;6102267;23;20507;-83
2022/07/15 16:01:43;;;;;;;2.80;2.23;;;36.00;34.90;;;;;;6116154;23;20441;-82
2022/07/15 16:04:10;;;;;;;3.17;2.13;;;35.30;36.40;;;;;;6111084;23;21040;-82
2022/07/15 16:06:37;;;;;;;3.50;2.30;;;34.30;36.40;;;;;;6104761;23;20425;-82
2022/07/15 16:09:04;;;;;;;2.80;2.13;;;33.50;36.70;;;;;;6100424;23;20434;-84
2022/07/15 16:11:32;;;;;;;3.03;2.70;;;32.60;37.50;;;;;;6113472;23;20452;-84
2022/07/15 16:14:00;;;;;;;3.13;2.20;;;31.60;38.70;;;;;;6106086;23;84309;-84
2022/07/15 16:16:27;;;;;;;2.97;2.30;;;30.60;39.50;;;;;;6097768;23;20442;-88
2022/07/15 16:18:54;;;;;;;2.47;2.10;;;29.90;42.00;;;;;;6100613;23;21575;-83
2022/07/15 16:24:03;;;;;;;3.77;2.47;;;28.70;42.20;;;;;;6093958;23;20600;-81
2022/07/15 16:26:30;;;;;;;4.70;2.43;;;28.20;43.20;;;;;;6086149;23;20448;-82
2022/07/15 16:28:57;;;;;;;2.10;2.00;;;27.80;43.80;;;;;;6080836;23;21032;-83
2022/07/15 16:31:25;;;;;;;3.33;2.07;;;27.60;44.20;;;;;;6088891;23;20530;-84
2022/07/15 16:33:52;;;;;;;2.33;2.13;;;27.30;44.90;;;;;;6072557;23;20462;-84
2022/07/15 16:36:20;;;;;;;3.00;2.70;;;27.00;44.80;;;;;;6086677;23;20449;-83
2022/07/15 16:38:47;;;;;;;4.50;2.87;;;26.80;45.50;;;;;;6063838;23;20486;-83
2022/07/15 16:41:14;;;;;;;2.50;2.30;;;26.60;45.80;;;;;;6080751;23;21017;-82
2022/07/15 16:43:41;;;;;;;2.43;2.13;;;26.50;46.10;;;;;;6082713;23;20470;-83
2022/07/15 16:46:08;;;;;;;2.73;2.53;;;26.30;47.10;;;;;;6094986;23;20462;-84
2022/07/15 16:48:37;;;;;;;3.63;2.70;;;26.20;47.60;;;;;;6089596;23;20524;-85
2022/07/15 16:51:04;;;;;;;3.10;2.40;;;26.20;47.40;;;;;;6085048;23;20794;-85
2022/07/15 16:53:31;;;;;;;4.07;2.80;;;26.00;47.40;;;;;;6090661;23;20556;-83
2022/07/15 16:55:58;;;;;;;3.33;2.43;;;26.00;47.70;;;;;;6098591;23;20464;-79
2022/07/15 16:58:25;;;;;;;3.17;2.80;;;26.00;48.40;;;;;;6100980;23;20824;-83
2022/07/15 17:00:52;;;;;;;2.87;2.33;;;26.10;48.80;;;;;;6086287;23;20445;-82
2022/07/15 17:03:20;;;;;;;2.70;2.43;;;26.10;47.80;;;;;;6081620;23;20811;-84
2022/07/15 17:05:48;;;;;;;2.80;2.60;;;26.10;47.70;;;;;;6095634;23;20495;-80
2022/07/15 17:08:15;;;;;;;3.30;2.60;;;26.10;48.00;;;;;;6087181;23;20852;-81
2022/07/15 17:10:42;;;;;;;2.50;2.30;;;26.00;47.80;;;;;;6094382;23;20435;-80
2022/07/15 17:13:09;;;;;;;3.03;2.30;;;25.90;47.90;;;;;;6092505;23;20579;-82
2022/07/15 17:15:36;;;;;;;3.53;2.30;;;25.80;48.40;;;;;;6094500;23;20531;-81
2022/07/15 17:18:04;;;;;;;3.03;2.47;;;25.70;48.30;;;;;;6090167;23;20454;-83
2022/07/15 17:20:31;;;;;;;2.97;2.50;;;25.60;48.80;;;;;;6091231;23;20439;-82
2022/07/15 17:23:00;;;;;;;3.63;2.33;;;25.60;48.80;;;;;;6088725;23;20447;-83
2022/07/15 17:25:27;;;;;;;2.57;2.20;;;25.50;49.10;;;;;;6091613;23;20474;-81
2022/07/15 17:27:54;;;;;;;3.30;3.00;;;25.50;49.70;;;;;;6089665;23;20503;-83
2022/07/15 17:30:21;;;;;;;3.30;2.60;;;25.50;49.60;;;;;;6097773;23;20447;-82
2022/07/15 17:32:49;;;;;;;3.17;2.50;;;25.50;49.40;;;;;;6094191;23;20437;-83
2022/07/15 17:35:16;;;;;;;2.90;2.13;;;25.50;49.00;;;;;;6097580;23;20534;-83
2022/07/15 17:37:43;;;;;;;3.63;2.60;;;25.50;49.60;;;;;;6083632;23;20442;-84
2022/07/15 17:40:13;;;;;;;3.13;2.93;;;25.40;49.20;;;;;;6097673;23;20997;-83
2022/07/15 17:42:40;;;;;;;3.87;3.53;;;25.30;49.40;;;;;;6095509;23;20436;-84
2022/07/15 17:45:09;;;;;;;3.30;2.93;;;25.10;49.40;;;;;;6078903;23;20469;-83
2022/07/15 17:47:36;;;;;;;2.80;2.57;;;24.90;49.70;;;;;;6065347;23;21158;-84
2022/07/15 17:50:03;;;;;;;2.97;2.67;;;24.80;50.00;;;;;;6084203;23;20938;-83
2022/07/15 17:52:31;;;;;;;2.87;2.70;;;24.80;50.10;;;;;;6082872;23;20448;-82
2022/07/15 17:54:58;;;;;;;2.77;2.57;;;24.60;50.20;;;;;;6074120;23;20472;-84
2022/07/15 17:57:26;;;;;;;3.07;2.87;;;24.40;50.40;;;;;;6075574;23;20502;-81
2022/07/15 17:59:53;;;;;;;3.70;2.73;;;24.30;50.70;;;;;;6073757;23;20438;-83
2022/07/15 18:02:21;;;;;;;3.07;2.77;;;24.20;50.80;;;;;;6074734;23;20443;-85
2022/07/15 18:04:48;;;;;;;2.40;2.20;;;24.10;50.90;;;;;;6073087;23;20473;-85
2022/07/15 18:07:16;;;;;;;3.60;2.70;;;24.00;50.90;;;;;;6083053;23;20516;-85
2022/07/15 18:09:44;;;;;;;4.27;3.10;;;23.90;51.10;;;;;;6095308;23;20457;-84
2022/07/15 18:12:11;;;;;;;3.33;3.03;;;23.90;50.90;;;;;;6078423;23;20512;-85
2022/07/15 18:14:40;;;;;;;3.70;3.20;;;23.80;50.90;;;;;;6071599;23;20598;-85
2022/07/15 18:17:08;;;;;;;5.87;3.40;;;23.70;51.00;;;;;;6083256;23;20469;-78
2022/07/15 18:19:35;;;;;;;4.23;2.80;;;23.80;51.20;;;;;;6069891;23;20856;-82
2022/07/15 18:22:03;;;;;;;3.10;2.90;;;23.80;51.40;;;;;;6095558;23;20445;-87
2022/07/15 18:24:30;;;;;;;2.90;2.70;;;23.70;51.70;;;;;;6088949;23;20478;-82
2022/07/15 18:26:58;;;;;;;5.10;2.87;;;23.70;51.40;;;;;;6089861;23;20506;-85
2022/07/15 18:29:25;;;;;;;4.73;2.90;;;23.60;51.70;;;;;;6083518;23;20445;-85
2022/07/15 18:31:53;;;;;;;3.23;2.93;;;23.50;51.70;;;;;;6090730;23;20465;-82
2022/07/15 18:34:20;;;;;;;3.60;2.70;;;23.40;51.50;;;;;;6081246;23;20473;-85
2022/07/15 18:36:48;;;;;;;2.97;2.77;;;23.40;51.50;;;;;;6077366;23;20448;-84
2022/07/15 18:39:15;;;;;;;4.10;3.03;;;23.40;52.00;;;;;;6077105;23;20441;-83
2022/07/15 18:41:42;;;;;;;3.40;2.70;;;23.30;52.00;;;;;;6077505;23;20448;-85
2022/07/15 18:44:10;;;;;;;4.67;2.90;;;23.30;52.40;;;;;;6081430;23;20547;-83
2022/07/15 18:46:37;;;;;;;3.43;3.13;;;23.30;52.40;;;;;;6083736;23;20560;-83
2022/07/15 18:49:06;;;;;;;3.50;3.07;;;23.30;52.40;;;;;;6069082;23;20438;-84
2022/07/15 18:51:32;;;;;;;3.47;3.17;;;23.20;52.60;;;;;;6075740;23;20840;-82
2022/07/15 18:54:00;;;;;;;4.47;3.13;;;23.20;52.70;;;;;;6081956;23;20466;-84
2022/07/15 18:56:27;;;;;;;3.50;3.20;;;23.20;52.90;;;;;;6081693;23;20819;-86
2022/07/15 18:58:54;;;;;;;3.60;2.80;;;23.20;53.00;;;;;;6085010;23;20844;-85
2022/07/15 19:01:21;;;;;;;4.03;3.10;;;23.20;53.00;;;;;;6083064;23;20440;-85
2022/07/15 19:03:48;;;;;;;3.63;3.33;;;23.00;52.60;;;;;;6086074;23;20533;-85
2022/07/15 19:06:17;;;;;;;3.63;3.03;;;23.00;52.80;;;;;;6075013;23;20487;-85
2022/07/15 19:08:44;;;;;;;3.80;2.63;;;22.90;53.20;;;;;;6080079;23;20435;-86
2022/07/15 19:11:12;;;;;;;3.40;3.10;;;22.80;53.80;;;;;;6082239;23;20931;-85
2022/07/15 19:13:39;;;;;;;2.90;2.53;;;22.70;53.30;;;;;;6080637;23;20889;-84
2022/07/15 19:16:06;;;;;;;3.20;2.90;;;22.60;53.30;;;;;;6078614;23;20446;-84
2022/07/15 19:18:34;;;;;;;3.30;3.00;;;22.60;53.50;;;;;;6073773;23;20503;-85
2022/07/15 19:21:01;;;;;;;3.50;3.20;;;22.60;53.60;;;;;;6081349;23;20468;-85
2022/07/15 19:23:30;;;;;;;4.00;3.30;;;22.60;53.60;;;;;;6082506;23;20464;-85
2022/07/15 19:25:58;;;;;;;6.07;3.20;;;22.50;53.90;;;;;;6078897;23;21757;-85
2022/07/15 19:28:25;;;;;;;3.90;3.60;;;22.50;53.70;;;;;;6071209;23;20527;-84
2022/07/15 19:30:55;;;;;;;3.30;3.00;;;22.40;53.70;;;;;;6083383;23;20447;-85
2022/07/15 19:33:22;;;;;;;4.13;3.03;;;22.40;53.80;;;;;;6075595;23;20468;-85
2022/07/15 19:35:50;;;;;;;3.30;3.07;;;22.40;54.00;;;;;;6080520;23;20472;-85
2022/07/15 19:38:18;;;;;;;3.43;3.10;;;22.30;54.10;;;;;;6073294;23;21016;-85
2022/07/15 19:40:46;;;;;;;3.50;3.20;;;22.30;54.10;;;;;;6071952;23;20480;-85
2022/07/15 19:43:13;;;;;;;4.83;3.43;;;22.20;54.40;;;;;;6072560;23;20480;-85
2022/07/15 19:45:40;;;;;;;4.20;3.53;;;22.10;54.40;;;;;;6073747;23;20459;-86
2022/07/15 19:48:08;;;;;;;3.80;3.13;;;22.10;54.60;;;;;;6074869;23;20436;-85
2022/07/15 19:50:35;;;;;;;4.00;3.70;;;22.00;54.60;;;;;;6072172;23;20489;-86
2022/07/15 19:53:02;;;;;;;4.10;3.80;;;21.90;54.70;;;;;;6077225;23;20459;-85
2022/07/15 19:55:30;;;;;;;4.67;3.77;;;21.90;55.00;;;;;;6066678;23;21043;-86
2022/07/15 19:57:58;;;;;;;3.50;3.20;;;21.80;55.10;;;;;;6075769;23;22230;-86
2022/07/15 20:00:26;;;;;;;3.60;3.30;;;21.80;55.30;;;;;;6068187;23;20442;-86
2022/07/15 20:02:55;;;;;;;5.80;3.20;;;21.70;55.50;;;;;;6076087;23;20470;-86
2022/07/15 20:05:23;;;;;;;8.83;3.50;;;21.70;55.80;;;;;;6071421;23;20528;-85
2022/07/15 20:07:51;;;;;;;3.40;2.97;;;21.70;55.70;;;;;;6069995;23;20440;-86
2022/07/15 20:10:21;;;;;;;3.33;3.03;;;21.70;55.90;;;;;;6079729;23;20439;-85
2022/07/15 20:12:49;;;;;;;4.73;3.20;;;21.60;56.00;;;;;;6077782;23;20459;-85
2022/07/15 20:15:19;;;;;;;3.60;3.30;;;21.60;56.40;;;;;;6085961;23;20437;-86
2022/07/15 20:17:46;;;;;;;3.60;3.00;;;21.50;56.20;;;;;;6078747;23;20465;-85
2022/07/15 20:20:14;;;;;;;3.00;2.70;;;21.50;56.50;;;;;;6074735;23;20448;-85
2022/07/15 20:22:42;;;;;;;3.43;3.17;;;21.40;56.70;;;;;;6072179;23;20461;-87
2022/07/15 20:25:09;;;;;;;3.27;2.97;;;21.30;57.00;;;;;;6084441;23;20540;-88
2022/07/15 20:27:36;;;;;;;3.40;3.10;;;21.30;57.40;;;;;;6080486;23;20452;-86
2022/07/15 20:30:05;;;;;;;4.33;3.93;;;21.20;57.30;;;;;;6080915;23;20435;-86
2022/07/15 20:32:33;;;;;;;4.70;3.73;;;21.20;57.20;;;;;;6087296;23;20588;-86
2022/07/15 20:35:00;;;;;;;3.70;3.40;;;21.20;57.20;;;;;;6075391;23;20492;-85
2022/07/15 20:37:28;;;;;;;3.90;3.40;;;21.20;57.30;;;;;;6092706;23;20475;-86
2022/07/15 20:39:54;;;;;;;3.90;3.50;;;21.10;57.40;;;;;;6082177;23;20518;-86
2022/07/15 20:42:22;;;;;;;3.83;3.37;;;21.10;57.70;;;;;;6065724;23;20496;-86
2022/07/15 20:44:50;;;;;;;3.93;3.40;;;21.10;57.70;;;;;;6076934;23;20567;-84
2022/07/15 20:47:17;;;;;;;5.87;3.73;;;21.00;57.60;;;;;;6073140;23;20437;-84
2022/07/15 20:49:45;;;;;;;3.93;3.40;;;21.10;57.90;;;;;;6078547;23;20438;-85
2022/07/15 20:52:13;;;;;;;4.60;4.00;;;21.00;57.90;;;;;;6078825;23;20800;-85
2022/07/15 20:54:40;;;;;;;3.80;3.50;;;21.00;57.90;;;;;;6074676;23;20817;-85
2022/07/15 20:57:07;;;;;;;3.80;3.50;;;21.00;58.20;;;;;;6096410;23;20439;-85
2022/07/15 20:59:35;;;;;;;3.40;3.10;;;21.00;58.10;;;;;;6076704;23;20433;-86
2022/07/15 21:02:02;;;;;;;4.10;3.10;;;21.10;58.30;;;;;;6080778;23;20483;-85
2022/07/15 21:04:29;;;;;;;4.73;3.60;;;20.90;58.20;;;;;;6084840;23;20460;-85
2022/07/15 21:06:58;;;;;;;4.27;3.20;;;20.90;58.40;;;;;;6085205;23;20535;-85
2022/07/15 21:09:25;;;;;;;3.73;3.33;;;20.90;58.60;;;;;;6089015;23;20449;-85
2022/07/15 21:11:52;;;;;;;4.10;3.70;;;20.90;58.50;;;;;;6087927;23;20533;-85
2022/07/15 21:14:19;;;;;;;4.63;3.20;;;20.80;58.90;;;;;;6088521;23;20508;-85
2022/07/15 21:16:46;;;;;;;3.37;3.13;;;20.80;58.90;;;;;;6086358;23;20442;-85
2022/07/15 21:19:13;;;;;;;3.40;3.10;;;20.80;59.00;;;;;;6089476;23;20442;-85
2022/07/15 21:21:41;;;;;;;4.20;3.10;;;20.80;59.10;;;;;;6077074;23;20472;-85
2022/07/15 21:26:50;;;;;;;3.20;2.90;;;20.70;59.10;;;;;;6076879;23;20474;-85
2022/07/15 21:29:17;;;;;;;4.20;3.10;;;20.60;59.20;;;;;;6090177;23;20446;-84